Time;durP1;ratioP1;P1;durP2;ratioP2;P2;SDS_P1;SDS_P2;PMS_P1;PMS_P2;Temp;Humidity;BMP_temperature;BMP_pressure;BME280_temperature;BME280_humidity;BME280_pressure;Samples;Min_cycle;Max_cycle;Signal;HPM_P1;HPM_P2
2022/11/01 00:09:29;;;;;;;8.02;5.32;;;;;;;21.64;63.07;100984.28;20978429;28;20048;-75
2022/11/01 00:19:30;;;;;;;9.13;5.15;;;;;;;21.63;62.96;100979.09;20983887;28;20585;-75
2022/11/01 00:29:30;;;;;;;8.07;4.75;;;;;;;21.63;63.08;100974.69;20984024;28;20121;-75
2022/11/01 00:39:30;;;;;;;7.90;5.10;;;;;;;21.61;63.41;100968.66;20982662;28;20063;-76
2022/11/01 00:49:31;;;;;;;8.00;5.00;;;;;;;21.59;63.38;100973.19;20986731;28;20033;-75
2022/11/01 00:59:32;;;;;;;7.50;4.93;;;;;;;21.59;63.60;100957.38;20984222;28;20068;-75
2022/11/01 01:09:33;;;;;;;9.68;5.20;;;;;;;21.58;63.57;100946.00;20985925;28;20052;-76
2022/11/01 01:19:33;;;;;;;8.10;4.78;;;;;;;21.57;63.30;100938.22;20983458;28;20036;-76
2022/11/01 01:29:33;;;;;;;7.07;4.18;;;;;;;21.53;63.60;100921.75;20982958;28;20049;-76
2022/11/01 01:39:34;;;;;;;7.35;4.70;;;;;;;21.56;63.08;100931.22;20990465;28;20094;-75
2022/11/01 01:49:35;;;;;;;7.72;4.93;;;;;;;21.54;63.65;100919.94;20984455;28;20576;-76
2022/11/01 01:59:36;;;;;;;5.47;4.05;;;;;;;21.53;63.40;100923.53;20996740;28;20048;-75
2022/11/01 02:09:38;;;;;;;6.55;4.38;;;;;;;21.52;63.52;100908.66;20982159;28;20499;-77
2022/11/01 02:19:53;;;;;;;7.03;4.82;;;;;;;21.51;63.24;100909.63;20988500;28;20037;-76
2022/11/01 02:30:14;;;;;;;7.93;4.47;;;;;;;21.52;63.28;100914.78;21003664;28;20055;-75
2022/11/01 02:40:23;;;;;;;6.78;3.97;;;;;;;21.50;63.55;100895.59;21000121;28;20402;-75
2022/11/01 02:50:37;;;;;;;6.50;4.38;;;;;;;21.47;63.51;100872.13;20996800;28;20073;-75
2022/11/01 03:00:38;;;;;;;6.13;4.13;;;;;;;21.46;63.20;100888.03;20991140;28;20113;-76
2022/11/01 03:11:17;;;;;;;5.97;4.03;;;;;;;21.47;63.14;100901.09;20987213;28;20047;-75
2022/11/01 03:21:22;;;;;;;7.28;4.30;;;;;;;21.46;63.08;100899.41;20985920;28;20274;-75
2022/11/01 03:31:31;;;;;;;5.88;3.72;;;;;;;21.44;63.48;100899.50;20985097;28;20704;-76
2022/11/01 03:41:36;;;;;;;6.32;3.90;;;;;;;21.45;63.19;100897.72;20983566;28;20040;-75
2022/11/01 03:51:36;;;;;;;4.68;3.30;;;;;;;21.43;63.06;100889.94;20982682;28;20101;-75
2022/11/01 04:01:36;;;;;;;5.10;3.60;;;;;;;21.41;63.10;100888.34;20991587;28;20048;-76
2022/11/01 04:11:37;;;;;;;5.57;3.75;;;;;;;21.41;63.23;100867.25;20995451;28;20491;-75
2022/11/01 04:21:37;;;;;;;5.43;3.67;;;;;;;21.40;63.22;100862.97;20986135;28;20506;-75
2022/11/01 04:31:38;;;;;;;5.18;3.70;;;;;;;21.39;63.02;100866.56;20981740;28;20045;-75
2022/11/01 04:41:38;;;;;;;5.47;3.92;;;;;;;21.39;63.43;100875.28;20991168;28;20503;-76
2022/11/01 04:51:39;;;;;;;4.88;3.17;;;;;;;21.38;63.16;100872.75;20979861;28;20045;-76
2022/11/01 05:01:40;;;;;;;5.55;3.22;;;;;;;21.36;62.86;100872.03;20986363;28;20459;-75
2022/11/01 05:11:40;;;;;;;4.55;3.13;;;;;;;21.39;62.93;100866.56;20981005;28;20048;-77
2022/11/01 05:21:41;;;;;;;4.60;3.35;;;;;;;21.46;62.90;100866.94;20990548;28;20063;-75
2022/11/01 05:31:41;;;;;;;3.80;3.10;;;;;;;21.49;62.24;100856.19;20976075;28;20049;-75
2022/11/01 05:41:42;;;;;;;5.25;3.28;;;;;;;21.52;61.91;100863.88;20969740;28;20040;-75
2022/11/01 05:51:42;;;;;;;4.50;3.10;;;;;;;21.52;61.95;100856.81;20986378;28;20086;-75
2022/11/01 06:01:42;;;;;;;4.43;3.42;;;;;;;21.57;62.13;100867.06;20999256;28;20071;-76
2022/11/01 06:11:43;;;;;;;3.97;3.10;;;;;;;21.59;61.97;100868.66;20995095;28;20044;-75
2022/11/01 06:21:45;;;;;;;4.50;3.20;;;;;;;21.64;63.66;100873.59;20979469;28;20059;-75
2022/11/01 06:31:46;;;;;;;4.38;3.15;;;;;;;21.67;63.44;100886.53;20994132;28;20043;-76
2022/11/01 06:41:46;;;;;;;9.13;4.20;;;;;;;21.71;63.46;100880.06;20975318;28;20515;-78
2022/11/01 06:51:47;;;;;;;7.05;4.63;;;;;;;21.77;63.47;100883.25;20969643;28;20072;-77
2022/11/01 07:01:47;;;;;;;7.32;4.53;;;;;;;21.83;64.50;100895.97;20977701;28;20040;-77
2022/11/01 07:11:47;;;;;;;6.50;4.80;;;;;;;21.86;64.89;100893.09;20982586;28;20052;-77
2022/11/01 07:21:48;;;;;;;10.05;4.28;;;;;;;21.88;64.13;100902.59;20963785;28;20132;-76
2022/11/01 07:31:49;;;;;;;7.70;4.30;;;;;;;21.91;64.79;100894.47;20962243;28;20051;-79
2022/11/01 07:41:51;;;;;;;10.30;4.25;;;;;;;21.96;64.40;100904.69;20967408;28;20032;-74
2022/11/01 07:51:51;;;;;;;6.33;4.50;;;;;;;22.00;64.72;100908.78;20983463;28;20048;-75
2022/11/01 08:01:51;;;;;;;8.27;4.20;;;;;;;22.01;64.05;100904.38;20982019;28;20074;-75
2022/11/01 08:11:52;;;;;;;8.57;3.88;;;;;;;22.02;63.65;100904.25;20978849;28;20290;-76
2022/11/01 08:21:56;;;;;;;7.30;4.80;;;;;;;22.02;63.67;100895.47;20983999;28;20032;-80
2022/11/01 08:31:56;;;;;;;6.68;4.10;;;;;;;22.02;63.38;100893.69;20989987;28;20567;-79
2022/11/01 08:41:58;;;;;;;6.70;4.60;;;;;;;22.01;62.11;100901.72;20995033;28;20054;-85
2022/11/01 08:51:58;;;;;;;8.95;5.72;;;;;;;21.96;61.42;100895.91;20970932;28;20052;-75
2022/11/01 09:01:59;;;;;;;10.60;5.70;;;;;;;22.01;61.90;100891.19;20970371;28;20132;-81
2022/11/01 09:11:59;;;;;;;11.68;6.45;;;;;;;21.92;60.08;100887.38;20950342;28;20040;-80
2022/11/01 09:22:00;;;;;;;14.48;6.05;;;;;;;21.89;59.84;100882.34;21006536;28;20052;-82
2022/11/01 09:32:02;;;;;;;11.80;5.43;;;;;;;21.88;60.71;100878.84;21019811;28;20044;-82
2022/11/01 09:42:16;;;;;;;10.23;6.23;;;;;;;21.85;61.08;100876.47;21013638;28;20448;-81
2022/11/01 09:52:22;;;;;;;9.90;5.60;;;;;;;21.85;60.90;100870.31;21020519;28;20105;-83
2022/11/01 10:03:03;;;;;;;9.45;5.63;;;;;;;21.83;60.80;100870.44;21027817;28;20032;-80
2022/11/01 10:13:31;;;;;;;11.23;5.97;;;;;;;21.83;60.87;100867.81;21024523;28;20048;-81
2022/11/01 10:23:43;;;;;;;13.20;6.82;;;;;;;21.78;61.14;100859.41;21010214;28;20777;-81
2022/11/01 10:33:48;;;;;;;9.05;6.53;;;;;;;21.78;61.10;100846.22;21032658;28;20048;-83
2022/11/01 10:43:55;;;;;;;9.77;6.95;;;;;;;21.76;60.83;100850.75;21013475;28;20036;-81
2022/11/01 10:54:01;;;;;;;9.38;6.22;;;;;;;21.75;60.73;100855.19;21041371;28;20051;-82
2022/11/01 11:04:13;;;;;;;9.93;6.72;;;;;;;21.71;60.86;100851.09;21043703;28;20047;-83
2022/11/01 11:14:19;;;;;;;8.30;6.97;;;;;;;21.70;60.67;100843.28;21015733;28;20067;-82
2022/11/01 11:24:23;;;;;;;9.35;7.00;;;;;;;21.68;60.62;100838.16;21033749;28;20466;-79
2022/11/01 11:34:42;;;;;;;8.88;6.88;;;;;;;21.67;60.57;100825.91;21033231;28;20052;-81
2022/11/01 11:44:47;;;;;;;8.50;6.78;;;;;;;21.65;60.17;100819.06;21027295;28;20097;-79
2022/11/01 11:54:50;;;;;;;10.35;6.95;;;;;;;21.63;60.43;100807.78;21037728;28;20639;-82
2022/11/01 12:04:55;;;;;;;8.88;6.50;;;;;;;21.63;60.12;100807.78;21053157;28;20036;-82
2022/11/01 12:14:57;;;;;;;7.90;6.28;;;;;;;21.61;60.33;100804.44;21042086;28;20495;-81
2022/11/01 12:25:05;;;;;;;9.10;6.40;;;;;;;21.59;60.13;100791.38;21035497;28;20985;-80
2022/11/01 12:35:21;;;;;;;10.60;6.47;;;;;;;21.58;60.03;100787.91;21041244;28;20051;-82
2022/11/01 12:45:31;;;;;;;7.82;6.07;;;;;;;21.57;60.14;100772.22;21030075;28;20036;-81
2022/11/01 12:55:34;;;;;;;8.18;6.47;;;;;;;21.56;60.05;100757.31;21024622;28;20040;-82
2022/11/01 13:06:06;;;;;;;8.75;6.35;;;;;;;21.57;60.02;100759.03;21035147;28;20047;-78
2022/11/01 13:16:18;;;;;;;11.63;7.03;;;;;;;21.53;59.50;100763.66;21015612;28;20104;-77
2022/11/01 13:26:34;;;;;;;10.40;6.90;;;;;;;21.58;59.82;100760.69;20978181;28;20410;-76
2022/11/01 13:36:50;;;;;;;11.02;6.40;;;;;;;21.60;59.92;100745.63;20987374;28;20048;-76
2022/11/01 13:47:09;;;;;;;12.60;6.05;;;;;;;21.62;60.45;100742.88;20992687;28;20040;-76
2022/11/01 13:57:14;;;;;;;10.65;6.38;;;;;;;21.62;60.23;100742.88;20995377;28;20094;-75
2022/11/01 14:07:15;;;;;;;8.23;5.82;;;;;;;21.64;60.16;100746.22;20983142;28;20071;-76
2022/11/01 14:17:18;;;;;;;9.70;6.22;;;;;;;21.63;60.22;100737.50;21002185;28;20048;-76
2022/11/01 14:27:33;;;;;;;8.60;6.10;;;;;;;21.62;60.33;100738.44;21020268;28;20068;-76
2022/11/01 14:37:47;;;;;;;9.20;5.90;;;;;;;21.64;60.53;100747.09;21000582;28;20122;-77
2022/11/01 14:47:49;;;;;;;7.90;5.90;;;;;;;21.63;60.50;100739.28;20998882;28;20040;-75
2022/11/01 14:58:05;;;;;;;8.80;5.95;;;;;;;21.62;60.34;100749.00;21007268;28;20078;-75
2022/11/01 15:08:20;;;;;;;9.32;5.90;;;;;;;21.63;60.55;100747.19;21007677;28;20072;-74
2022/11/01 15:18:20;;;;;;;9.43;5.97;;;;;;;21.63;60.62;100755.09;21003856;28;20111;-75
2022/11/01 15:28:34;;;;;;;10.20;6.18;;;;;;;21.64;60.89;100764.69;21001107;28;20118;-75
2022/11/01 15:38:52;;;;;;;9.50;5.95;;;;;;;21.63;60.55;100761.22;20990959;28;20048;-75
2022/11/01 15:48:56;;;;;;;9.10;5.93;;;;;;;21.64;60.40;100759.41;20995048;28;20069;-75
2022/11/01 15:59:00;;;;;;;8.40;5.88;;;;;;;21.62;60.33;100761.31;20980664;28;20032;-75
2022/11/01 16:09:06;;;;;;;9.27;5.55;;;;;;;21.61;60.55;100771.03;20981590;28;20055;-76
2022/11/01 16:19:50;;;;;;;9.30;5.70;;;;;;;21.61;60.85;100773.66;21010910;28;20124;-76
2022/11/01 16:29:51;;;;;;;9.77;5.43;;;;;;;21.60;61.08;100766.69;20996897;28;20082;-75
2022/11/01 16:39:53;;;;;;;10.80;5.22;;;;;;;21.62;60.85;100771.84;20997084;28;20111;-74
2022/11/01 16:49:54;;;;;;;9.30;5.30;;;;;;;21.61;61.02;100780.72;20994013;28;20051;-75
2022/11/01 16:59:55;;;;;;;8.43;5.10;;;;;;;21.60;61.39;100774.59;20994698;28;20041;-76
2022/11/01 17:09:57;;;;;;;7.27;5.53;;;;;;;21.59;60.95;100772.91;21009974;28;20036;-79
2022/11/01 17:20:02;;;;;;;8.27;5.30;;;;;;;21.59;61.24;100784.31;21018794;28;20339;-79
2022/11/01 17:30:03;;;;;;;7.43;4.75;;;;;;;21.60;60.86;100779.88;21010792;28;20033;-78
2022/11/01 17:40:16;;;;;;;6.80;4.93;;;;;;;21.58;61.42;100781.78;20989117;28;20394;-78
2022/11/01 17:50:16;;;;;;;6.15;4.75;;;;;;;21.57;61.28;100774.84;21015623;28;22371;-77
2022/11/01 18:00:17;;;;;;;7.78;4.63;;;;;;;21.59;61.17;100780.81;21011994;28;21531;-77
2022/11/01 18:10:20;;;;;;;5.78;4.38;;;;;;;21.58;61.24;100764.19;21004683;28;20052;-79
2022/11/01 18:20:55;;;;;;;7.60;4.68;;;;;;;21.62;61.07;100753.41;21012211;28;20734;-77
2022/11/01 18:31:01;;;;;;;11.57;4.80;;;;;;;21.62;60.84;100761.31;21011124;28;20036;-76
2022/11/01 18:41:03;;;;;;;6.63;4.28;;;;;;;21.62;61.32;100756.03;21012399;28;20706;-76
2022/11/01 18:51:11;;;;;;;7.07;4.70;;;;;;;21.61;61.03;100770.19;21006589;28;20110;-76
2022/11/01 19:01:18;;;;;;;7.55;4.50;;;;;;;21.63;61.19;100781.44;21020107;28;20048;-76
2022/11/01 19:11:19;;;;;;;5.90;4.40;;;;;;;21.59;61.13;100767.66;21006611;28;20196;-78
2022/11/01 19:21:22;;;;;;;5.50;4.20;;;;;;;21.61;60.79;100778.09;21010297;28;20036;-76
2022/11/01 19:31:28;;;;;;;7.90;4.47;;;;;;;21.58;60.68;100765.97;21022164;28;20399;-78
2022/11/01 19:41:33;;;;;;;6.20;4.93;;;;;;;21.59;60.73;100765.00;21049671;28;20059;-77
2022/11/01 19:51:34;;;;;;;7.00;4.60;;;;;;;21.58;60.88;100763.31;21047472;28;20028;-78
2022/11/01 20:01:44;;;;;;;6.53;4.50;;;;;;;21.60;60.82;100777.25;21045328;27;20541;-76
2022/11/01 20:11:45;;;;;;;6.05;4.50;;;;;;;21.59;60.97;100794.84;21024481;28;20048;-76
2022/11/01 20:21:45;;;;;;;5.85;4.40;;;;;;;21.59;60.94;100788.72;21016156;28;20525;-77
2022/11/01 20:31:46;;;;;;;5.28;4.35;;;;;;;21.57;61.05;100788.84;21006955;28;20044;-76
2022/11/01 20:41:47;;;;;;;6.13;4.30;;;;;;;21.57;60.73;100788.03;21005594;28;20562;-78
2022/11/01 20:51:47;;;;;;;5.22;4.20;;;;;;;21.56;61.06;100789.78;21013995;28;20068;-77
2022/11/01 21:01:48;;;;;;;5.47;4.20;;;;;;;21.56;61.05;100792.44;21029078;28;20134;-78
2022/11/01 21:11:50;;;;;;;5.75;4.10;;;;;;;21.57;60.96;100774.84;20991208;28;20058;-80
2022/11/01 21:22:00;;;;;;;6.07;4.25;;;;;;;21.55;61.43;100789.88;20982298;28;20131;-80
2022/11/01 21:32:04;;;;;;;5.70;3.78;;;;;;;21.49;61.14;100790.34;20984931;28;20068;-78
2022/11/01 21:42:29;;;;;;;6.15;4.40;;;;;;;21.47;60.46;100790.44;20981281;28;20123;-77
2022/11/01 21:52:29;;;;;;;6.65;4.60;;;;;;;21.46;60.90;100772.09;20947477;28;20048;-77
2022/11/01 22:02:30;;;;;;;6.90;4.15;;;;;;;21.46;61.13;100786.13;20992086;28;20043;-76
2022/11/01 22:12:30;;;;;;;7.60;4.22;;;;;;;21.46;61.25;100791.41;20978417;28;20967;-76
2022/11/01 22:22:31;;;;;;;6.63;4.25;;;;;;;21.45;61.09;100784.44;20979402;28;20376;-77
2022/11/01 22:32:31;;;;;;;6.97;4.45;;;;;;;21.44;61.44;100790.66;20985731;28;20051;-77
2022/11/01 22:42:32;;;;;;;5.93;4.15;;;;;;;21.42;61.18;100789.91;21003545;28;20063;-76
2022/11/01 22:52:42;;;;;;;8.00;4.57;;;;;;;21.44;61.35;100803.84;21002317;28;20075;-76
2022/11/01 23:02:42;;;;;;;5.75;4.00;;;;;;;21.42;61.54;100813.63;20993394;28;20056;-77
2022/11/01 23:23:03;;;;;;;4.93;3.83;;;;;;;21.38;61.34;100784.03;20990970;28;20037;-77
2022/11/01 23:33:07;;;;;;;5.55;3.85;;;;;;;21.42;61.12;100811.84;20993256;28;20040;-76
2022/11/01 23:43:38;;;;;;;5.97;3.75;;;;;;;21.45;61.58;100816.06;20998794;28;20414;-77
2022/11/01 23:53:40;;;;;;;6.55;3.90;;;;;;;21.42;61.55;100825.03;20992598;28;20113;-76
